ADDS METAR Data INFO
IDs: Format: Raw Decoded Include TAF

Data at: 0006 UTC 19 Jul 2018

METAR for:LFOK (Chalons-Vatry(AFB), --, FR)
Text:LFOK 190000Z AUTO 02006KT CAVOK 18/11 Q1018 NOSIG
Temperature: 18.0°C ( 64°F)
Dewpoint: 11.0°C ( 52°F) [RH = 64%]
Pressure (altimeter):30.06 inches Hg (1018.0 mb)
Winds:from the NNE (20 degrees) at 7 MPH (6 knots; 3.1 m/s)
Visibility:6 or more sm (10+ km)
Ceiling:ceiling and visibility are OK
Clouds:unknown

TAF for:LFOK (Chalons-Vatry(AFB), --, FR) issued at 2300 UTC 18 Jul 2018
Text:TAF LFOK 182300Z 1900/1924 02007KT CAVOK
Forecast period:0000 UTC 19 July 2018 to 0000 UTC 20 July 2018
Forecast type:FROM: standard forecast or significant change
Winds:from the NNE (20 degrees) at 8 MPH (7 knots; 3.6 m/s)
Visibility:6 or more sm (10+ km)
Clouds:missing
Weather:NSW (no significant weather)